createdAt,value
2019-05-22T00:01:14.027Z,32.50
2019-05-22T00:03:45.211Z,33.03
2019-05-22T00:06:15.447Z,38.43
2019-05-22T00:08:45.418Z,37.30
2019-05-22T00:11:16.555Z,33.57
2019-05-22T00:13:48.018Z,32.80
2019-05-22T00:16:17.992Z,38.83
2019-05-22T00:18:47.313Z,36.20
2019-05-22T00:21:18.607Z,39.00
2019-05-22T00:23:47.937Z,38.20
2019-05-22T00:26:19.349Z,33.17
2019-05-22T00:28:49.646Z,41.87
2019-05-22T00:31:20.820Z,39.20
2019-05-22T00:33:50.376Z,38.80
2019-05-22T00:36:20.826Z,38.20
2019-05-22T00:38:51.481Z,46.93
2019-05-22T00:41:22.511Z,41.17
2019-05-22T00:43:53.002Z,49.23
2019-05-22T00:46:24.585Z,40.87
2019-05-22T00:48:54.494Z,36.03
2019-05-22T00:51:34.538Z,42.50
2019-05-22T00:54:09.753Z,44.13
2019-05-22T00:56:53.132Z,36.40
2019-05-22T00:59:27.171Z,39.93
2019-05-22T01:02:04.594Z,46.40
2019-05-22T01:04:43.680Z,40.17
2019-05-22T01:07:20.782Z,44.67
2019-05-22T01:09:52.784Z,42.43
2019-05-22T01:12:29.722Z,43.03
2019-05-22T01:15:05.021Z,47.00
2019-05-22T01:17:36.828Z,45.93
2019-05-22T01:20:11.849Z,45.30
2019-05-22T01:22:42.462Z,45.90
2019-05-22T01:25:16.038Z,41.73
2019-05-22T01:27:47.183Z,48.33
2019-05-22T01:30:35.336Z,48.40
2019-05-22T01:33:13.154Z,48.93
2019-05-22T01:35:44.582Z,41.73
2019-05-22T01:38:13.936Z,48.80
2019-05-22T01:40:51.148Z,48.23
2019-05-22T01:43:23.672Z,41.80
2019-05-22T01:45:52.586Z,42.10
2019-05-22T01:48:26.142Z,42.67
2019-05-22T01:50:58.822Z,44.20
2019-05-22T01:53:33.749Z,49.30
2019-05-22T01:56:07.167Z,46.27
2019-05-22T01:58:39.128Z,47.17
2019-05-22T02:01:12.876Z,48.20
2019-05-22T02:03:42.999Z,51.37
2019-05-22T02:06:12.397Z,44.03
2019-05-22T02:08:46.046Z,42.40
2019-05-22T02:11:19.546Z,54.47
2019-05-22T02:13:54.807Z,47.73
2019-05-22T02:16:26.514Z,48.90
2019-05-22T02:18:56.624Z,50.40
2019-05-22T02:21:26.963Z,52.17
2019-05-22T02:23:56.470Z,48.50
2019-05-22T02:26:25.866Z,52.10
2019-05-22T02:28:55.364Z,48.13
2019-05-22T02:31:26.618Z,43.40
2019-05-22T02:34:03.752Z,52.40
2019-05-22T02:36:37.643Z,43.67
2019-05-22T02:39:26.571Z,51.07
2019-05-22T02:42:02.382Z,46.70
2019-05-22T02:44:33.415Z,48.17
2019-05-22T02:47:17.781Z,45.27
2019-05-22T02:49:36.492Z,51.27
2019-05-22T02:52:07.978Z,46.33
2019-05-22T02:54:38.629Z,47.13
2019-05-22T02:57:10.328Z,49.30
2019-05-22T02:59:42.281Z,44.27
2019-05-22T03:02:14.121Z,45.10
2019-05-22T03:05:03.646Z,53.83
2019-05-22T03:07:33.214Z,45.07
2019-05-22T03:10:05.039Z,49.03
2019-05-22T03:12:36.472Z,53.00
2019-05-22T03:15:13.115Z,46.30
2019-05-22T03:17:45.127Z,44.93
2019-05-22T03:20:18.982Z,46.63
2019-05-22T03:23:09.832Z,42.63
2019-05-22T03:25:40.595Z,46.67
2019-05-22T03:28:11.094Z,45.43
2019-05-22T03:30:44.103Z,44.97
2019-05-22T03:33:14.711Z,45.33
2019-05-22T03:35:49.067Z,48.67
2019-05-22T03:38:20.514Z,47.50
2019-05-22T03:40:52.402Z,49.23
2019-05-22T03:43:25.102Z,50.53
2019-05-22T03:45:56.324Z,44.17
2019-05-22T03:48:30.359Z,42.87
2019-05-22T03:51:09.458Z,42.70
2019-05-22T03:53:39.675Z,51.40
2019-05-22T03:56:09.339Z,46.97
2019-05-22T03:58:38.620Z,42.83
2019-05-22T04:01:08.141Z,50.17
2019-05-22T04:03:38.726Z,51.30
2019-05-22T04:06:08.686Z,41.33
2019-05-22T04:08:39.585Z,48.30
2019-05-22T04:11:10.396Z,42.93
2019-05-22T04:13:40.550Z,43.30
2019-05-22T04:16:14.373Z,36.20
2019-05-22T04:18:44.454Z,45.80
2019-05-22T04:21:14.110Z,41.30
2019-05-22T04:23:43.779Z,39.13
2019-05-22T04:26:13.872Z,42.50
2019-05-22T04:28:55.032Z,41.77
2019-05-22T04:31:46.704Z,44.53
2019-05-22T04:34:16.192Z,45.70
2019-05-22T04:36:46.847Z,46.80
2019-05-22T04:39:22.232Z,39.20
2019-05-22T04:41:52.795Z,47.27
2019-05-22T04:44:22.893Z,42.27
2019-05-22T04:46:52.742Z,43.30
2019-05-22T04:49:22.528Z,48.03
2019-05-22T04:51:52.124Z,43.70
2019-05-22T04:54:22.435Z,41.33
2019-05-22T04:56:52.259Z,45.43
2019-05-22T04:59:22.243Z,44.20
2019-05-22T05:01:51.723Z,40.87
2019-05-22T05:04:21.111Z,43.90
2019-05-22T05:06:51.084Z,40.83
2019-05-22T05:09:21.319Z,42.30
2019-05-22T05:11:50.953Z,42.43
2019-05-22T05:14:20.359Z,40.63
2019-05-22T05:16:50.723Z,47.03
2019-05-22T05:19:20.630Z,44.90
2019-05-22T05:21:50.039Z,35.53
2019-05-22T05:24:20.218Z,41.03
2019-05-22T05:26:50.466Z,42.07
2019-05-22T05:29:30.488Z,43.33
2019-05-22T05:32:00.389Z,42.40
2019-05-22T05:34:40.702Z,42.43
2019-05-22T05:37:13.495Z,41.80
2019-05-22T05:39:53.024Z,41.00
2019-05-22T05:42:22.808Z,36.30
2019-05-22T05:44:52.165Z,42.23
2019-05-22T05:47:21.582Z,50.13
2019-05-22T05:49:51.796Z,35.60
2019-05-22T05:52:21.634Z,42.50
2019-05-22T05:54:51.658Z,41.77
2019-05-22T05:57:41.002Z,38.93
2019-05-22T06:00:16.834Z,39.70
2019-05-22T06:02:56.002Z,41.20
2019-05-22T06:05:17.651Z,39.10
2019-05-22T06:07:47.146Z,44.53
2019-05-22T06:10:30.393Z,38.30
2019-05-22T06:13:00.674Z,47.97
2019-05-22T06:15:47.824Z,43.37
2019-05-22T06:18:32.634Z,40.93
2019-05-22T06:21:04.455Z,41.10
2019-05-22T06:23:42.438Z,37.83
2019-05-22T06:26:18.693Z,42.70
2019-05-22T06:28:49.132Z,38.07
2019-05-22T06:31:32.123Z,42.67
2019-05-22T06:34:01.467Z,40.27
2019-05-22T06:36:31.364Z,38.43
2019-05-22T06:39:03.538Z,37.83
2019-05-22T06:41:36.035Z,37.30
2019-05-22T06:44:30.546Z,36.03
2019-05-22T06:47:01.055Z,41.00
2019-05-22T06:49:37.015Z,36.37
2019-05-22T06:52:10.028Z,38.80
2019-05-22T06:54:39.578Z,43.27
2019-05-22T06:57:11.651Z,38.40
2019-05-22T06:59:41.869Z,31.67
2019-05-22T07:02:14.035Z,33.07
2019-05-22T07:04:43.635Z,33.30
2019-05-22T07:07:14.681Z,32.70
2019-05-22T07:09:45.745Z,32.90
2019-05-22T07:12:16.848Z,33.80
2019-05-22T07:15:10.860Z,34.60
2019-05-22T07:17:40.264Z,34.30
2019-05-22T07:20:11.446Z,46.40
2019-05-22T07:22:40.853Z,40.20
2019-05-22T07:25:12.019Z,33.17
2019-05-22T07:27:42.333Z,40.37
2019-05-22T07:30:11.895Z,36.53
2019-05-22T07:32:41.453Z,36.73
2019-05-22T07:35:11.583Z,39.97
2019-05-22T07:37:46.026Z,33.60
2019-05-22T07:40:18.701Z,36.00
2019-05-22T07:42:50.846Z,29.20
2019-05-22T07:45:22.912Z,38.33
2019-05-22T07:47:53.958Z,39.53
2019-05-22T07:50:24.480Z,38.30
2019-05-22T07:52:54.064Z,41.80
2019-05-22T07:55:25.583Z,34.10
2019-05-22T07:58:05.711Z,40.40
2019-05-22T08:00:35.538Z,34.27
2019-05-22T08:03:05.954Z,34.57
2019-05-22T08:05:38.942Z,37.23
2019-05-22T08:08:08.799Z,35.83
2019-05-22T08:10:38.420Z,38.47
2019-05-22T08:13:08.556Z,37.00
2019-05-22T08:15:38.062Z,34.43
2019-05-22T08:18:07.931Z,32.87
2019-05-22T08:20:37.874Z,34.90
2019-05-22T08:23:07.758Z,33.43
2019-05-22T08:25:37.500Z,30.13
2019-05-22T08:28:08.290Z,30.00
2019-05-22T08:30:37.678Z,25.40
2019-05-22T08:33:10.673Z,26.67
2019-05-22T08:35:40.297Z,25.20
2019-05-22T08:38:12.001Z,27.00
2019-05-22T08:40:41.878Z,27.00
2019-05-22T08:43:12.711Z,25.50
2019-05-22T08:45:43.015Z,25.00
2019-05-22T08:48:13.518Z,30.77
2019-05-22T08:50:45.135Z,26.17
2019-05-22T08:53:16.116Z,25.97
2019-05-22T08:55:46.554Z,29.17
2019-05-22T08:58:19.076Z,21.30
2019-05-22T09:00:49.079Z,23.27
2019-05-22T09:03:18.490Z,20.90
2019-05-22T09:05:47.812Z,22.23
2019-05-22T09:08:17.400Z,28.77
2019-05-22T09:10:47.088Z,25.37
2019-05-22T09:13:16.627Z,23.77
2019-05-22T09:15:46.023Z,17.17
2019-05-22T09:18:15.533Z,22.50
2019-05-22T09:20:49.242Z,24.07
2019-05-22T09:23:17.428Z,22.27
2019-05-22T09:25:47.168Z,20.60
2019-05-22T09:28:16.666Z,21.80
2019-05-22T09:30:46.348Z,24.07
2019-05-22T09:33:16.214Z,22.10
2019-05-22T09:35:45.909Z,23.87
2019-05-22T09:38:15.557Z,19.10
2019-05-22T09:40:46.232Z,22.20
2019-05-22T09:43:15.799Z,19.93
2019-05-22T09:45:45.113Z,21.83
2019-05-22T09:48:14.974Z,19.63
2019-05-22T09:50:44.362Z,15.00
2019-05-22T09:53:13.814Z,14.40
2019-05-22T09:55:47.175Z,18.20
2019-05-22T09:58:14.281Z,18.43
2019-05-22T10:00:43.904Z,20.07
2019-05-22T10:03:13.329Z,15.83
2019-05-22T10:05:42.961Z,14.43
2019-05-22T10:08:12.685Z,17.40
2019-05-22T10:10:42.617Z,18.37
2019-05-22T10:13:12.105Z,13.40
2019-05-22T10:15:42.222Z,11.37
2019-05-22T10:18:11.941Z,15.90
2019-05-22T10:20:41.799Z,13.40
2019-05-22T10:23:16.177Z,12.00
2019-05-22T10:25:42.848Z,12.60
2019-05-22T10:28:12.969Z,15.90
2019-05-22T10:30:42.434Z,13.50
2019-05-22T10:33:12.180Z,14.70
2019-05-22T10:35:41.955Z,13.63
2019-05-22T10:38:11.542Z,15.37
2019-05-22T10:40:41.017Z,20.00
2019-05-22T10:43:10.434Z,16.50
2019-05-22T10:45:40.103Z,13.73
2019-05-22T10:48:09.600Z,18.13
2019-05-22T10:50:39.038Z,10.63
2019-05-22T10:53:09.018Z,14.83
2019-05-22T10:55:38.891Z,13.77
2019-05-22T10:58:08.961Z,16.47
2019-05-22T11:00:38.362Z,15.80
2019-05-22T11:03:08.453Z,24.73
2019-05-22T11:05:38.794Z,15.10
2019-05-22T11:08:08.446Z,14.10
2019-05-22T11:10:37.975Z,14.27
2019-05-22T11:13:07.524Z,16.03
2019-05-22T11:15:37.015Z,14.20
2019-05-22T11:18:06.495Z,11.10
2019-05-22T11:20:36.022Z,17.97
2019-05-22T11:23:05.768Z,10.63
2019-05-22T11:25:35.771Z,14.23
2019-05-22T11:28:05.224Z,12.57
2019-05-22T11:30:35.948Z,10.60
2019-05-22T11:33:06.227Z,12.37
2019-05-22T11:35:36.240Z,14.70
2019-05-22T11:38:05.639Z,11.00
2019-05-22T11:40:35.040Z,11.63
2019-05-22T11:43:05.815Z,14.63
2019-05-22T11:45:35.530Z,11.07
2019-05-22T11:48:05.544Z,10.07
2019-05-22T11:50:36.507Z,10.30
2019-05-22T11:53:05.991Z,9.20
2019-05-22T11:55:45.076Z,9.60
2019-05-22T11:58:07.658Z,12.93
2019-05-22T12:00:37.335Z,12.60
2019-05-22T12:03:07.289Z,10.97
2019-05-22T12:05:36.890Z,14.03
2019-05-22T12:08:07.251Z,17.77
2019-05-22T12:10:38.571Z,15.13
2019-05-22T12:13:09.730Z,13.10
2019-05-22T12:15:39.413Z,14.47
2019-05-22T12:18:10.818Z,14.60
2019-05-22T12:20:40.312Z,12.43
2019-05-22T12:23:09.898Z,14.23
2019-05-22T12:25:39.640Z,14.13
2019-05-22T12:28:09.515Z,13.73
2019-05-22T12:30:39.164Z,8.67
2019-05-22T12:33:13.714Z,9.10
2019-05-22T12:35:42.348Z,8.37
2019-05-22T12:38:13.798Z,10.07
2019-05-22T12:40:45.205Z,9.43
2019-05-22T12:43:14.776Z,9.30
2019-05-22T12:45:44.621Z,9.20
2019-05-22T12:48:14.871Z,11.70
2019-05-22T12:50:44.280Z,14.37
2019-05-22T12:53:15.248Z,10.73
2019-05-22T12:55:44.894Z,11.00
2019-05-22T12:58:14.556Z,10.03
2019-05-22T13:00:44.608Z,8.87
2019-05-22T13:03:16.036Z,8.47
2019-05-22T13:05:46.768Z,11.17
2019-05-22T13:08:16.897Z,10.17
2019-05-22T13:10:47.054Z,11.47
2019-05-22T13:13:16.608Z,12.23
2019-05-22T13:15:46.887Z,8.60
2019-05-22T13:18:20.391Z,10.30
2019-05-22T13:20:51.571Z,8.77
2019-05-22T13:23:24.912Z,8.67
2019-05-22T13:25:55.148Z,9.97
2019-05-22T13:28:28.447Z,14.90
2019-05-22T13:30:58.803Z,7.40
2019-05-22T13:33:29.308Z,9.30
2019-05-22T13:35:59.697Z,6.80
2019-05-22T13:38:29.314Z,9.80
2019-05-22T13:40:58.970Z,7.87
2019-05-22T13:43:30.096Z,9.40
2019-05-22T13:46:00.023Z,8.33
2019-05-22T13:48:29.754Z,11.70
2019-05-22T13:51:00.104Z,6.93
2019-05-22T13:53:30.925Z,8.23
2019-05-22T13:56:01.071Z,7.13
2019-05-22T13:58:31.697Z,7.13
2019-05-22T14:01:01.268Z,7.60
2019-05-22T14:03:30.717Z,8.00
2019-05-22T14:06:00.518Z,6.23
2019-05-22T14:08:29.882Z,6.13
2019-05-22T14:10:59.927Z,6.60
2019-05-22T14:13:29.779Z,6.30
2019-05-22T14:15:59.343Z,6.23
2019-05-22T14:18:29.128Z,5.70
2019-05-22T14:20:58.583Z,5.67
2019-05-22T14:23:27.967Z,6.23
2019-05-22T14:25:57.546Z,5.53
2019-05-22T14:28:28.670Z,6.00
2019-05-22T14:30:58.658Z,6.80
2019-05-22T14:33:28.538Z,4.97
2019-05-22T14:35:59.767Z,6.20
2019-05-22T14:38:29.260Z,7.40
2019-05-22T14:40:58.669Z,12.77
2019-05-22T14:43:29.209Z,11.90
2019-05-22T14:45:59.312Z,7.00
2019-05-22T14:48:28.644Z,8.60
2019-05-22T14:50:58.917Z,9.33
2019-05-22T14:53:29.076Z,12.53
2019-05-22T14:56:00.294Z,9.77
2019-05-22T14:58:30.540Z,9.07
2019-05-22T15:01:00.008Z,8.30
2019-05-22T15:03:29.580Z,24.13
2019-05-22T15:05:59.393Z,18.27
2019-05-22T15:08:28.853Z,8.33
2019-05-22T15:10:58.699Z,9.13
2019-05-22T15:13:28.216Z,9.53
2019-05-22T15:15:57.786Z,6.90
2019-05-22T15:18:27.194Z,7.10
2019-05-22T15:21:04.064Z,7.20
2019-05-22T15:23:33.994Z,7.40
2019-05-22T15:26:04.017Z,5.30
2019-05-22T15:28:33.963Z,6.90
2019-05-22T15:31:04.111Z,5.00
2019-05-22T15:33:35.043Z,6.03
2019-05-22T15:36:08.133Z,4.93
2019-05-22T15:38:40.961Z,4.73
2019-05-22T15:41:11.582Z,5.27
2019-05-22T15:43:43.201Z,5.27
2019-05-22T15:46:14.654Z,4.73
2019-05-22T15:48:46.892Z,4.93
2019-05-22T15:51:18.281Z,4.60
2019-05-22T15:53:48.156Z,5.50
2019-05-22T15:56:18.676Z,5.73
2019-05-22T15:58:51.900Z,7.80
2019-05-22T16:01:24.691Z,4.43
2019-05-22T16:03:58.062Z,5.57
2019-05-22T16:06:29.371Z,4.80
2019-05-22T16:08:59.662Z,6.20
2019-05-22T16:11:31.408Z,5.13
2019-05-22T16:14:01.906Z,8.10
2019-05-22T16:16:32.313Z,5.30
2019-05-22T16:19:05.056Z,8.93
2019-05-22T16:21:36.337Z,5.60
2019-05-22T16:24:07.442Z,6.00
2019-05-22T16:26:36.824Z,7.43
2019-05-22T16:29:07.169Z,6.40
2019-05-22T16:31:39.700Z,6.00
2019-05-22T16:34:09.184Z,6.13
2019-05-22T16:36:38.936Z,7.70
2019-05-22T16:39:11.278Z,4.77
2019-05-22T16:41:43.148Z,5.53
2019-05-22T16:44:12.944Z,5.27
2019-05-22T16:46:42.793Z,6.07
2019-05-22T16:49:13.746Z,5.57
2019-05-22T16:51:45.620Z,5.07
2019-05-22T16:54:20.308Z,6.33
2019-05-22T16:56:48.931Z,5.80
2019-05-22T16:59:19.811Z,5.17
2019-05-22T17:02:00.542Z,4.70
2019-05-22T17:04:21.140Z,4.50
2019-05-22T17:06:50.526Z,11.87
2019-05-22T17:09:21.415Z,4.50
2019-05-22T17:11:51.914Z,4.60
2019-05-22T17:14:23.801Z,4.30
2019-05-22T17:16:53.620Z,4.90
2019-05-22T17:19:27.593Z,4.53
2019-05-22T17:21:55.649Z,4.20
2019-05-22T17:24:26.048Z,4.90
2019-05-22T17:26:56.317Z,6.87
2019-05-22T17:29:26.401Z,5.23
2019-05-22T17:31:57.092Z,4.27
2019-05-22T17:34:34.195Z,6.40
2019-05-22T17:37:08.639Z,5.80
2019-05-22T17:39:42.295Z,4.17
2019-05-22T17:42:15.178Z,4.20
2019-05-22T17:44:47.110Z,4.20
2019-05-22T17:47:18.016Z,5.30
2019-05-22T17:49:47.431Z,4.67
2019-05-22T17:52:18.862Z,4.50
2019-05-22T17:54:51.103Z,6.20
2019-05-22T17:57:22.375Z,4.10
2019-05-22T17:59:52.624Z,5.43
2019-05-22T18:02:23.936Z,5.97
2019-05-22T18:04:54.361Z,5.60
2019-05-22T18:07:24.824Z,7.00
2019-05-22T18:09:55.120Z,8.33
2019-05-22T18:12:24.575Z,4.93
2019-05-22T18:14:54.083Z,5.07
2019-05-22T18:17:24.728Z,5.57
2019-05-22T18:19:54.125Z,5.37
2019-05-22T18:22:23.525Z,6.80
2019-05-22T18:24:52.941Z,4.90
2019-05-22T18:27:25.246Z,5.53
2019-05-22T18:29:54.298Z,4.60
2019-05-22T18:32:23.898Z,5.37
2019-05-22T18:34:53.247Z,5.17
2019-05-22T18:37:22.630Z,5.50
2019-05-22T18:39:55.607Z,5.53
2019-05-22T18:42:24.976Z,5.03
2019-05-22T18:44:54.316Z,7.23
2019-05-22T18:47:24.103Z,6.70
2019-05-22T18:49:53.866Z,5.60
2019-05-22T18:52:38.216Z,5.97
2019-05-22T18:54:54.331Z,7.70
2019-05-22T18:57:24.123Z,6.03
2019-05-22T19:00:00.341Z,6.67
2019-05-22T19:02:24.944Z,6.13
2019-05-22T19:04:57.724Z,6.70
2019-05-22T19:07:27.005Z,5.43
2019-05-22T19:09:56.479Z,9.60
2019-05-22T19:12:26.506Z,6.10
2019-05-22T19:14:56.093Z,4.87
2019-05-22T19:17:25.561Z,5.30
2019-05-22T19:19:55.149Z,9.27
2019-05-22T19:22:24.780Z,8.13
2019-05-22T19:24:54.132Z,5.27
2019-05-22T19:27:23.632Z,5.70
2019-05-22T19:29:53.093Z,6.13
2019-05-22T19:32:22.422Z,6.40
2019-05-22T19:34:51.875Z,7.43
2019-05-22T19:37:21.268Z,5.77
2019-05-22T19:39:50.822Z,7.00
2019-05-22T19:42:20.294Z,17.50
2019-05-22T19:44:51.724Z,10.53
2019-05-22T19:47:21.844Z,11.30
2019-05-22T19:49:51.920Z,9.13
2019-05-22T19:52:24.230Z,7.97
2019-05-22T19:54:53.272Z,9.57
2019-05-22T19:57:22.911Z,8.80
2019-05-22T19:59:52.317Z,9.23
2019-05-22T20:02:22.228Z,14.17
2019-05-22T20:05:13.104Z,13.00
2019-05-22T20:07:45.800Z,12.63
2019-05-22T20:10:15.741Z,8.17
2019-05-22T20:12:46.786Z,10.87
2019-05-22T20:15:17.189Z,17.00
2019-05-22T20:17:47.284Z,10.30
2019-05-22T20:20:19.229Z,9.70
2019-05-22T20:22:49.737Z,17.13
2019-05-22T20:25:20.562Z,16.30
2019-05-22T20:27:49.978Z,13.43
2019-05-22T20:30:21.958Z,16.10
2019-05-22T20:32:51.448Z,10.83
2019-05-22T20:35:25.498Z,12.90
2019-05-22T20:38:00.342Z,15.90
2019-05-22T20:40:33.685Z,13.67
2019-05-22T20:43:14.902Z,14.87
2019-05-22T20:45:46.828Z,14.57
2019-05-22T20:51:35.268Z,18.47
2019-05-22T20:54:04.944Z,17.77
2019-05-22T20:56:35.415Z,16.63
2019-05-22T20:59:05.189Z,15.10
2019-05-22T21:04:28.191Z,19.80
2019-05-22T21:05:07.872Z,13.70
2019-05-22T21:07:02.557Z,18.43
2019-05-22T21:09:32.499Z,15.50
2019-05-22T21:12:03.585Z,14.20
2019-05-22T21:14:33.383Z,17.43
2019-05-22T21:17:03.569Z,12.03
2019-05-22T21:19:34.903Z,18.23
2019-05-22T21:22:06.971Z,13.23
2019-05-22T21:24:36.696Z,14.97
2019-05-22T21:27:07.551Z,11.70
2019-05-22T21:29:37.679Z,15.30
2019-05-22T21:32:08.388Z,16.73
2019-05-22T21:34:38.430Z,16.63
2019-05-22T21:37:08.015Z,17.73
2019-05-22T21:39:37.911Z,15.70
2019-05-22T21:42:08.756Z,18.70
2019-05-22T21:44:38.381Z,23.73
2019-05-22T21:47:09.652Z,16.43
2019-05-22T21:49:39.990Z,18.73
2019-05-22T21:52:10.981Z,20.13
2019-05-22T21:54:40.439Z,20.80
2019-05-22T21:57:10.428Z,21.20
2019-05-22T21:59:41.587Z,18.60
2019-05-22T22:02:13.401Z,22.13
2019-05-22T22:04:43.441Z,21.87
2019-05-22T22:07:13.610Z,18.30
2019-05-22T22:09:43.074Z,17.70
2019-05-22T22:12:14.925Z,20.07
2019-05-22T22:14:44.489Z,19.90
2019-05-22T22:17:14.698Z,16.17
2019-05-22T22:19:44.337Z,20.27
2019-05-22T22:22:19.176Z,21.03
2019-05-22T22:24:52.549Z,20.00
2019-05-22T22:27:25.233Z,24.23
2019-05-22T22:29:55.719Z,18.20
2019-05-22T22:32:26.769Z,19.37
2019-05-22T22:34:56.277Z,16.80
2019-05-22T22:37:25.899Z,18.13
2019-05-22T22:39:56.745Z,19.33
2019-05-22T22:42:28.473Z,20.80
2019-05-22T22:44:59.594Z,25.43
2019-05-22T22:47:30.882Z,16.13
2019-05-22T22:50:00.851Z,19.30
2019-05-22T22:52:31.426Z,23.57
2019-05-22T22:55:01.829Z,19.37
2019-05-22T22:57:31.779Z,19.50
2019-05-22T23:00:02.107Z,21.27
2019-05-22T23:02:33.047Z,20.70
2019-05-22T23:05:04.797Z,17.37
2019-05-22T23:07:36.050Z,19.97
2019-05-22T23:10:09.634Z,22.10
2019-05-22T23:12:40.689Z,21.33
2019-05-22T23:15:12.178Z,20.87
2019-05-22T23:17:42.894Z,18.23
2019-05-22T23:20:10.802Z,21.10
2019-05-22T23:22:40.180Z,18.83
2019-05-22T23:25:10.353Z,24.17
2019-05-22T23:27:39.809Z,19.17
2019-05-22T23:30:11.612Z,19.63
2019-05-22T23:32:44.234Z,19.50
2019-05-22T23:35:13.802Z,21.07
2019-05-22T23:37:44.359Z,23.87
2019-05-22T23:40:18.759Z,21.80
2019-05-22T23:42:48.672Z,23.83
2019-05-22T23:45:21.971Z,28.70
2019-05-22T23:48:02.377Z,23.73
2019-05-22T23:50:35.292Z,21.50
2019-05-22T23:53:05.911Z,23.67
2019-05-22T23:55:36.450Z,20.80
2019-05-22T23:58:07.117Z,21.23
